sensor_id;sensor_type;location;lat;lon;timestamp;P1;durP1;ratioP1;P2;durP2;ratioP2
13801;SDS011;6972;51.518;6.918;2022-12-18T00:00:46;77.57;;;38.10;;
13801;SDS011;6972;51.518;6.918;2022-12-18T00:03:13;71.33;;;35.13;;
13801;SDS011;6972;51.518;6.918;2022-12-18T00:05:49;74.77;;;37.23;;
13801;SDS011;6972;51.518;6.918;2022-12-18T00:08:16;63.70;;;34.33;;
13801;SDS011;6972;51.518;6.918;2022-12-18T00:10:43;77.27;;;36.63;;
13801;SDS011;6972;51.518;6.918;2022-12-18T00:13:09;78.53;;;37.43;;
13801;SDS011;6972;51.518;6.918;2022-12-18T00:15:36;76.33;;;37.87;;
13801;SDS011;6972;51.518;6.918;2022-12-18T00:18:02;76.10;;;38.23;;
13801;SDS011;6972;51.518;6.918;2022-12-18T00:20:28;74.53;;;37.67;;
13801;SDS011;6972;51.518;6.918;2022-12-18T00:22:54;77.97;;;36.83;;
13801;SDS011;6972;51.518;6.918;2022-12-18T00:25:23;73.70;;;37.37;;
13801;SDS011;6972;51.518;6.918;2022-12-18T00:27:48;75.80;;;36.00;;
13801;SDS011;6972;51.518;6.918;2022-12-18T00:30:14;80.70;;;38.83;;
13801;SDS011;6972;51.518;6.918;2022-12-18T00:32:40;84.27;;;39.37;;
13801;SDS011;6972;51.518;6.918;2022-12-18T00:35:06;78.87;;;39.50;;
13801;SDS011;6972;51.518;6.918;2022-12-18T00:37:33;76.90;;;37.40;;
13801;SDS011;6972;51.518;6.918;2022-12-18T00:39:59;79.03;;;36.83;;
13801;SDS011;6972;51.518;6.918;2022-12-18T00:42:25;64.67;;;34.77;;
13801;SDS011;6972;51.518;6.918;2022-12-18T00:45:09;69.90;;;34.73;;
13801;SDS011;6972;51.518;6.918;2022-12-18T00:47:34;75.83;;;36.23;;
13801;SDS011;6972;51.518;6.918;2022-12-18T00:50:00;69.33;;;34.77;;
13801;SDS011;6972;51.518;6.918;2022-12-18T00:52:25;71.30;;;35.73;;
13801;SDS011;6972;51.518;6.918;2022-12-18T00:54:51;74.07;;;35.53;;
13801;SDS011;6972;51.518;6.918;2022-12-18T00:57:17;74.40;;;35.03;;
13801;SDS011;6972;51.518;6.918;2022-12-18T00:59:42;68.80;;;34.07;;
13801;SDS011;6972;51.518;6.918;2022-12-18T01:02:08;69.70;;;34.20;;
13801;SDS011;6972;51.518;6.918;2022-12-18T01:04:34;74.50;;;35.27;;
13801;SDS011;6972;51.518;6.918;2022-12-18T01:06:59;70.07;;;33.70;;
13801;SDS011;6972;51.518;6.918;2022-12-18T01:09:25;68.57;;;34.53;;
13801;SDS011;6972;51.518;6.918;2022-12-18T01:11:51;70.50;;;33.70;;
13801;SDS011;6972;51.518;6.918;2022-12-18T01:14:17;67.83;;;32.83;;
13801;SDS011;6972;51.518;6.918;2022-12-18T01:16:42;75.50;;;34.67;;
13801;SDS011;6972;51.518;6.918;2022-12-18T01:19:08;65.73;;;31.30;;
13801;SDS011;6972;51.518;6.918;2022-12-18T01:21:33;63.67;;;33.33;;
13801;SDS011;6972;51.518;6.918;2022-12-18T01:23:59;68.43;;;32.53;;
13801;SDS011;6972;51.518;6.918;2022-12-18T01:26:25;66.53;;;33.07;;
13801;SDS011;6972;51.518;6.918;2022-12-18T01:28:54;64.20;;;31.53;;
13801;SDS011;6972;51.518;6.918;2022-12-18T01:31:22;63.93;;;30.87;;
13801;SDS011;6972;51.518;6.918;2022-12-18T01:33:50;68.87;;;31.50;;
13801;SDS011;6972;51.518;6.918;2022-12-18T01:36:18;71.93;;;31.93;;
13801;SDS011;6972;51.518;6.918;2022-12-18T01:38:49;73.70;;;33.93;;
13801;SDS011;6972;51.518;6.918;2022-12-18T01:41:17;77.13;;;34.53;;
13801;SDS011;6972;51.518;6.918;2022-12-18T01:43:50;66.60;;;32.23;;
13801;SDS011;6972;51.518;6.918;2022-12-18T01:46:17;68.17;;;32.30;;
13801;SDS011;6972;51.518;6.918;2022-12-18T01:48:45;63.50;;;32.03;;
13801;SDS011;6972;51.518;6.918;2022-12-18T01:51:13;67.53;;;32.83;;
13801;SDS011;6972;51.518;6.918;2022-12-18T01:53:39;65.37;;;33.00;;
13801;SDS011;6972;51.518;6.918;2022-12-18T01:56:07;68.67;;;32.93;;
13801;SDS011;6972;51.518;6.918;2022-12-18T02:01:08;84.27;;;34.57;;
13801;SDS011;6972;51.518;6.918;2022-12-18T02:03:34;69.60;;;33.23;;
13801;SDS011;6972;51.518;6.918;2022-12-18T02:06:09;73.83;;;34.83;;
13801;SDS011;6972;51.518;6.918;2022-12-18T02:16:23;72.00;;;33.70;;
13801;SDS011;6972;51.518;6.918;2022-12-18T02:18:59;74.50;;;33.90;;
13801;SDS011;6972;51.518;6.918;2022-12-18T02:27:42;73.13;;;31.50;;
13801;SDS011;6972;51.518;6.918;2022-12-18T02:30:12;68.00;;;32.77;;
13801;SDS011;6972;51.518;6.918;2022-12-18T02:32:39;72.03;;;31.00;;
13801;SDS011;6972;51.518;6.918;2022-12-18T02:35:23;67.43;;;32.43;;
13801;SDS011;6972;51.518;6.918;2022-12-18T02:37:52;68.10;;;31.27;;
13801;SDS011;6972;51.518;6.918;2022-12-18T02:40:19;74.67;;;32.13;;
13801;SDS011;6972;51.518;6.918;2022-12-18T02:42:47;67.80;;;32.77;;
13801;SDS011;6972;51.518;6.918;2022-12-18T02:45:13;70.33;;;33.87;;
13801;SDS011;6972;51.518;6.918;2022-12-18T02:47:39;68.63;;;31.27;;
13801;SDS011;6972;51.518;6.918;2022-12-18T02:50:30;69.73;;;31.30;;
13801;SDS011;6972;51.518;6.918;2022-12-18T02:58:18;66.60;;;31.00;;
13801;SDS011;6972;51.518;6.918;2022-12-18T03:00:58;69.97;;;31.20;;
13801;SDS011;6972;51.518;6.918;2022-12-18T03:03:36;59.80;;;28.63;;
13801;SDS011;6972;51.518;6.918;2022-12-18T03:06:18;69.60;;;30.00;;
13801;SDS011;6972;51.518;6.918;2022-12-18T03:08:53;61.07;;;29.97;;
13801;SDS011;6972;51.518;6.918;2022-12-18T03:11:39;70.43;;;30.73;;
13801;SDS011;6972;51.518;6.918;2022-12-18T03:14:29;63.27;;;29.87;;
13801;SDS011;6972;51.518;6.918;2022-12-18T03:16:58;63.77;;;30.13;;
13801;SDS011;6972;51.518;6.918;2022-12-18T03:19:27;64.37;;;31.20;;
13801;SDS011;6972;51.518;6.918;2022-12-18T03:21:57;66.13;;;30.33;;
13801;SDS011;6972;51.518;6.918;2022-12-18T03:24:26;63.27;;;28.60;;
13801;SDS011;6972;51.518;6.918;2022-12-18T03:26:55;60.37;;;29.10;;
13801;SDS011;6972;51.518;6.918;2022-12-18T03:29:47;61.43;;;31.70;;
13801;SDS011;6972;51.518;6.918;2022-12-18T03:32:12;66.30;;;31.03;;
13801;SDS011;6972;51.518;6.918;2022-12-18T03:34:44;63.73;;;30.10;;
13801;SDS011;6972;51.518;6.918;2022-12-18T03:37:14;74.60;;;31.80;;
13801;SDS011;6972;51.518;6.918;2022-12-18T03:39:40;58.50;;;29.23;;
13801;SDS011;6972;51.518;6.918;2022-12-18T03:45:04;62.60;;;30.50;;
13801;SDS011;6972;51.518;6.918;2022-12-18T03:47:49;75.20;;;31.63;;
13801;SDS011;6972;51.518;6.918;2022-12-18T03:50:27;62.90;;;30.00;;
13801;SDS011;6972;51.518;6.918;2022-12-18T03:55:33;56.33;;;27.03;;
13801;SDS011;6972;51.518;6.918;2022-12-18T03:58:00;62.97;;;28.07;;
13801;SDS011;6972;51.518;6.918;2022-12-18T04:00:28;60.37;;;28.13;;
13801;SDS011;6972;51.518;6.918;2022-12-18T04:02:56;60.67;;;27.77;;
13801;SDS011;6972;51.518;6.918;2022-12-18T04:05:25;52.97;;;26.40;;
13801;SDS011;6972;51.518;6.918;2022-12-18T04:07:52;54.47;;;27.53;;
13801;SDS011;6972;51.518;6.918;2022-12-18T04:10:19;52.27;;;26.20;;
13801;SDS011;6972;51.518;6.918;2022-12-18T04:12:45;52.23;;;26.77;;
13801;SDS011;6972;51.518;6.918;2022-12-18T04:15:11;58.37;;;28.13;;
13801;SDS011;6972;51.518;6.918;2022-12-18T04:17:38;57.33;;;28.53;;
13801;SDS011;6972;51.518;6.918;2022-12-18T04:20:08;52.33;;;26.33;;
13801;SDS011;6972;51.518;6.918;2022-12-18T04:22:34;59.10;;;27.87;;
13801;SDS011;6972;51.518;6.918;2022-12-18T04:25:00;58.87;;;28.97;;
13801;SDS011;6972;51.518;6.918;2022-12-18T04:27:25;59.30;;;26.87;;
13801;SDS011;6972;51.518;6.918;2022-12-18T04:29:51;53.93;;;27.80;;
13801;SDS011;6972;51.518;6.918;2022-12-18T04:32:17;62.67;;;28.13;;
13801;SDS011;6972;51.518;6.918;2022-12-18T04:34:42;54.53;;;26.63;;
13801;SDS011;6972;51.518;6.918;2022-12-18T04:37:08;54.17;;;25.13;;
13801;SDS011;6972;51.518;6.918;2022-12-18T04:39:33;55.53;;;27.10;;
13801;SDS011;6972;51.518;6.918;2022-12-18T04:42:00;50.13;;;25.77;;
13801;SDS011;6972;51.518;6.918;2022-12-18T04:44:26;51.27;;;26.03;;
13801;SDS011;6972;51.518;6.918;2022-12-18T04:46:51;52.07;;;26.27;;
13801;SDS011;6972;51.518;6.918;2022-12-18T04:49:17;56.53;;;25.60;;
13801;SDS011;6972;51.518;6.918;2022-12-18T04:51:42;48.23;;;24.23;;
13801;SDS011;6972;51.518;6.918;2022-12-18T04:54:08;49.83;;;23.47;;
13801;SDS011;6972;51.518;6.918;2022-12-18T04:56:34;45.67;;;23.47;;
13801;SDS011;6972;51.518;6.918;2022-12-18T04:58:59;51.23;;;24.27;;
13801;SDS011;6972;51.518;6.918;2022-12-18T05:01:25;48.37;;;24.03;;
13801;SDS011;6972;51.518;6.918;2022-12-18T05:03:51;49.97;;;23.93;;
13801;SDS011;6972;51.518;6.918;2022-12-18T05:06:17;53.50;;;24.00;;
13801;SDS011;6972;51.518;6.918;2022-12-18T05:08:42;46.30;;;23.30;;
13801;SDS011;6972;51.518;6.918;2022-12-18T05:11:09;52.10;;;24.93;;
13801;SDS011;6972;51.518;6.918;2022-12-18T05:13:37;41.33;;;22.40;;
13801;SDS011;6972;51.518;6.918;2022-12-18T05:16:03;43.67;;;23.43;;
13801;SDS011;6972;51.518;6.918;2022-12-18T05:18:29;46.23;;;22.93;;
13801;SDS011;6972;51.518;6.918;2022-12-18T05:20:55;45.93;;;22.13;;
13801;SDS011;6972;51.518;6.918;2022-12-18T05:23:22;42.63;;;21.10;;
13801;SDS011;6972;51.518;6.918;2022-12-18T05:28:18;44.37;;;21.67;;
13801;SDS011;6972;51.518;6.918;2022-12-18T05:30:48;44.30;;;22.47;;
13801;SDS011;6972;51.518;6.918;2022-12-18T05:33:18;41.67;;;21.23;;
13801;SDS011;6972;51.518;6.918;2022-12-18T05:35:50;38.83;;;21.40;;
13801;SDS011;6972;51.518;6.918;2022-12-18T05:38:16;43.30;;;21.77;;
13801;SDS011;6972;51.518;6.918;2022-12-18T05:40:43;44.90;;;20.30;;
13801;SDS011;6972;51.518;6.918;2022-12-18T05:43:10;42.30;;;22.13;;
13801;SDS011;6972;51.518;6.918;2022-12-18T05:45:36;41.27;;;22.13;;
13801;SDS011;6972;51.518;6.918;2022-12-18T05:48:03;42.63;;;21.30;;
13801;SDS011;6972;51.518;6.918;2022-12-18T05:50:29;44.37;;;21.07;;
13801;SDS011;6972;51.518;6.918;2022-12-18T05:52:54;42.37;;;20.13;;
13801;SDS011;6972;51.518;6.918;2022-12-18T05:55:20;40.10;;;20.43;;
13801;SDS011;6972;51.518;6.918;2022-12-18T05:57:46;42.33;;;20.67;;
13801;SDS011;6972;51.518;6.918;2022-12-18T06:00:11;38.20;;;19.87;;
13801;SDS011;6972;51.518;6.918;2022-12-18T06:02:38;33.93;;;18.70;;
13801;SDS011;6972;51.518;6.918;2022-12-18T06:05:04;35.00;;;17.53;;
13801;SDS011;6972;51.518;6.918;2022-12-18T06:07:30;41.07;;;18.77;;
13801;SDS011;6972;51.518;6.918;2022-12-18T06:09:56;29.57;;;17.53;;
13801;SDS011;6972;51.518;6.918;2022-12-18T06:12:21;33.70;;;17.37;;
13801;SDS011;6972;51.518;6.918;2022-12-18T06:14:47;32.27;;;18.27;;
13801;SDS011;6972;51.518;6.918;2022-12-18T06:17:12;34.20;;;18.30;;
13801;SDS011;6972;51.518;6.918;2022-12-18T06:19:38;35.10;;;17.13;;
13801;SDS011;6972;51.518;6.918;2022-12-18T06:22:04;32.00;;;17.03;;
13801;SDS011;6972;51.518;6.918;2022-12-18T06:24:30;35.00;;;17.20;;
13801;SDS011;6972;51.518;6.918;2022-12-18T06:26:55;41.13;;;17.87;;
13801;SDS011;6972;51.518;6.918;2022-12-18T06:29:21;31.83;;;16.77;;
13801;SDS011;6972;51.518;6.918;2022-12-18T06:31:46;37.10;;;17.60;;
13801;SDS011;6972;51.518;6.918;2022-12-18T06:34:12;32.10;;;17.47;;
13801;SDS011;6972;51.518;6.918;2022-12-18T06:36:38;29.37;;;16.33;;
13801;SDS011;6972;51.518;6.918;2022-12-18T06:39:03;41.30;;;19.47;;
13801;SDS011;6972;51.518;6.918;2022-12-18T06:41:29;35.97;;;16.83;;
13801;SDS011;6972;51.518;6.918;2022-12-18T06:43:55;39.33;;;18.43;;
13801;SDS011;6972;51.518;6.918;2022-12-18T06:46:20;36.43;;;18.73;;
13801;SDS011;6972;51.518;6.918;2022-12-18T06:48:46;34.07;;;18.37;;
13801;SDS011;6972;51.518;6.918;2022-12-18T06:51:15;41.37;;;20.77;;
13801;SDS011;6972;51.518;6.918;2022-12-18T06:53:44;43.03;;;21.07;;
13801;SDS011;6972;51.518;6.918;2022-12-18T06:56:10;43.10;;;20.30;;
13801;SDS011;6972;51.518;6.918;2022-12-18T06:58:36;38.50;;;21.07;;
13801;SDS011;6972;51.518;6.918;2022-12-18T07:01:02;36.50;;;18.90;;
13801;SDS011;6972;51.518;6.918;2022-12-18T07:03:29;34.63;;;18.03;;
13801;SDS011;6972;51.518;6.918;2022-12-18T07:05:56;40.83;;;19.70;;
13801;SDS011;6972;51.518;6.918;2022-12-18T07:08:21;38.70;;;18.17;;
13801;SDS011;6972;51.518;6.918;2022-12-18T07:10:47;37.90;;;18.97;;
13801;SDS011;6972;51.518;6.918;2022-12-18T07:13:14;36.70;;;17.80;;
13801;SDS011;6972;51.518;6.918;2022-12-18T07:15:40;32.03;;;17.87;;
13801;SDS011;6972;51.518;6.918;2022-12-18T07:18:06;31.87;;;17.33;;
13801;SDS011;6972;51.518;6.918;2022-12-18T07:20:31;34.23;;;18.60;;
13801;SDS011;6972;51.518;6.918;2022-12-18T07:22:57;38.50;;;19.53;;
13801;SDS011;6972;51.518;6.918;2022-12-18T07:25:23;39.30;;;19.67;;
13801;SDS011;6972;51.518;6.918;2022-12-18T07:27:48;39.00;;;19.37;;
13801;SDS011;6972;51.518;6.918;2022-12-18T07:30:14;52.00;;;20.97;;
13801;SDS011;6972;51.518;6.918;2022-12-18T07:32:39;36.73;;;19.17;;
13801;SDS011;6972;51.518;6.918;2022-12-18T07:35:05;35.97;;;18.63;;
13801;SDS011;6972;51.518;6.918;2022-12-18T07:37:31;35.23;;;17.80;;
13801;SDS011;6972;51.518;6.918;2022-12-18T07:39:56;41.53;;;20.27;;
13801;SDS011;6972;51.518;6.918;2022-12-18T07:42:22;35.83;;;19.13;;
13801;SDS011;6972;51.518;6.918;2022-12-18T07:44:59;34.97;;;18.40;;
13801;SDS011;6972;51.518;6.918;2022-12-18T07:47:26;36.93;;;17.60;;
13801;SDS011;6972;51.518;6.918;2022-12-18T07:49:57;33.03;;;17.23;;
13801;SDS011;6972;51.518;6.918;2022-12-18T07:52:23;29.40;;;16.20;;
13801;SDS011;6972;51.518;6.918;2022-12-18T07:54:48;32.93;;;17.43;;
13801;SDS011;6972;51.518;6.918;2022-12-18T07:57:15;31.73;;;16.87;;
13801;SDS011;6972;51.518;6.918;2022-12-18T07:59:41;29.53;;;16.77;;
13801;SDS011;6972;51.518;6.918;2022-12-18T08:02:07;33.93;;;17.27;;
13801;SDS011;6972;51.518;6.918;2022-12-18T08:04:33;33.07;;;18.43;;
13801;SDS011;6972;51.518;6.918;2022-12-18T08:07:01;35.57;;;18.10;;
13801;SDS011;6972;51.518;6.918;2022-12-18T08:09:27;37.60;;;19.60;;
13801;SDS011;6972;51.518;6.918;2022-12-18T08:11:52;41.03;;;20.87;;
13801;SDS011;6972;51.518;6.918;2022-12-18T08:14:18;40.80;;;21.33;;
13801;SDS011;6972;51.518;6.918;2022-12-18T08:16:45;40.43;;;20.43;;
13801;SDS011;6972;51.518;6.918;2022-12-18T08:19:10;30.97;;;17.90;;
13801;SDS011;6972;51.518;6.918;2022-12-18T08:21:36;35.27;;;18.50;;
13801;SDS011;6972;51.518;6.918;2022-12-18T08:24:06;35.93;;;18.93;;
13801;SDS011;6972;51.518;6.918;2022-12-18T08:26:31;37.30;;;19.17;;
13801;SDS011;6972;51.518;6.918;2022-12-18T08:28:58;34.70;;;19.17;;
13801;SDS011;6972;51.518;6.918;2022-12-18T08:31:25;37.57;;;18.73;;
13801;SDS011;6972;51.518;6.918;2022-12-18T08:33:53;33.10;;;17.67;;
13801;SDS011;6972;51.518;6.918;2022-12-18T08:36:19;35.13;;;18.17;;
13801;SDS011;6972;51.518;6.918;2022-12-18T08:38:46;34.90;;;19.23;;
13801;SDS011;6972;51.518;6.918;2022-12-18T08:41:13;31.40;;;17.70;;
13801;SDS011;6972;51.518;6.918;2022-12-18T08:43:40;31.33;;;17.90;;
13801;SDS011;6972;51.518;6.918;2022-12-18T08:46:25;35.63;;;18.97;;
13801;SDS011;6972;51.518;6.918;2022-12-18T08:48:52;34.77;;;19.70;;
13801;SDS011;6972;51.518;6.918;2022-12-18T08:51:23;40.47;;;19.47;;
13801;SDS011;6972;51.518;6.918;2022-12-18T08:53:49;35.33;;;18.30;;
13801;SDS011;6972;51.518;6.918;2022-12-18T08:56:16;33.73;;;18.60;;
13801;SDS011;6972;51.518;6.918;2022-12-18T08:58:43;38.87;;;18.77;;
13801;SDS011;6972;51.518;6.918;2022-12-18T09:01:09;33.10;;;17.33;;
13801;SDS011;6972;51.518;6.918;2022-12-18T09:03:36;36.47;;;17.90;;
13801;SDS011;6972;51.518;6.918;2022-12-18T09:06:02;30.30;;;16.03;;
13801;SDS011;6972;51.518;6.918;2022-12-18T09:08:29;30.43;;;15.93;;
13801;SDS011;6972;51.518;6.918;2022-12-18T09:10:55;30.67;;;15.03;;
13801;SDS011;6972;51.518;6.918;2022-12-18T09:13:20;25.70;;;13.20;;
13801;SDS011;6972;51.518;6.918;2022-12-18T09:15:50;27.97;;;13.87;;
13801;SDS011;6972;51.518;6.918;2022-12-18T09:18:18;25.77;;;13.47;;
13801;SDS011;6972;51.518;6.918;2022-12-18T09:20:45;25.03;;;13.10;;
13801;SDS011;6972;51.518;6.918;2022-12-18T09:23:11;23.20;;;13.10;;
13801;SDS011;6972;51.518;6.918;2022-12-18T09:25:37;24.20;;;13.40;;
13801;SDS011;6972;51.518;6.918;2022-12-18T09:28:04;23.13;;;13.27;;
13801;SDS011;6972;51.518;6.918;2022-12-18T09:30:32;27.40;;;13.40;;
13801;SDS011;6972;51.518;6.918;2022-12-18T09:33:01;23.93;;;13.83;;
13801;SDS011;6972;51.518;6.918;2022-12-18T09:35:27;23.50;;;12.93;;
13801;SDS011;6972;51.518;6.918;2022-12-18T09:37:53;21.47;;;12.23;;
13801;SDS011;6972;51.518;6.918;2022-12-18T09:40:20;23.80;;;12.97;;
13801;SDS011;6972;51.518;6.918;2022-12-18T09:42:50;23.13;;;12.63;;
13801;SDS011;6972;51.518;6.918;2022-12-18T09:45:20;25.80;;;13.03;;
13801;SDS011;6972;51.518;6.918;2022-12-18T09:47:46;23.77;;;12.67;;
13801;SDS011;6972;51.518;6.918;2022-12-18T09:50:20;23.53;;;13.07;;
13801;SDS011;6972;51.518;6.918;2022-12-18T09:52:53;23.10;;;12.93;;
13801;SDS011;6972;51.518;6.918;2022-12-18T09:55:35;26.47;;;14.20;;
13801;SDS011;6972;51.518;6.918;2022-12-18T09:58:06;26.20;;;13.77;;
13801;SDS011;6972;51.518;6.918;2022-12-18T10:00:32;24.13;;;13.70;;
13801;SDS011;6972;51.518;6.918;2022-12-18T10:03:03;25.33;;;13.53;;
13801;SDS011;6972;51.518;6.918;2022-12-18T10:11:16;28.53;;;14.80;;
13801;SDS011;6972;51.518;6.918;2022-12-18T10:13:46;29.10;;;15.67;;
13801;SDS011;6972;51.518;6.918;2022-12-18T10:27:24;36.33;;;18.33;;
13801;SDS011;6972;51.518;6.918;2022-12-18T10:29:52;33.10;;;17.20;;
13801;SDS011;6972;51.518;6.918;2022-12-18T10:32:22;33.83;;;17.97;;
13801;SDS011;6972;51.518;6.918;2022-12-18T10:34:55;32.97;;;17.23;;
13801;SDS011;6972;51.518;6.918;2022-12-18T10:37:24;32.40;;;16.33;;
13801;SDS011;6972;51.518;6.918;2022-12-18T10:42:32;27.20;;;15.60;;
13801;SDS011;6972;51.518;6.918;2022-12-18T10:45:08;26.70;;;15.20;;
13801;SDS011;6972;51.518;6.918;2022-12-18T10:47:42;28.80;;;15.73;;
13801;SDS011;6972;51.518;6.918;2022-12-18T10:53:03;25.20;;;14.93;;
13801;SDS011;6972;51.518;6.918;2022-12-18T10:55:38;26.63;;;14.87;;
13801;SDS011;6972;51.518;6.918;2022-12-18T11:01:02;23.70;;;13.20;;
13801;SDS011;6972;51.518;6.918;2022-12-18T11:06:03;26.23;;;14.67;;
13801;SDS011;6972;51.518;6.918;2022-12-18T11:08:29;25.57;;;14.30;;
13801;SDS011;6972;51.518;6.918;2022-12-18T11:10:55;29.67;;;14.10;;
13801;SDS011;6972;51.518;6.918;2022-12-18T11:13:21;25.90;;;14.73;;
13801;SDS011;6972;51.518;6.918;2022-12-18T11:15:50;29.30;;;12.67;;
13801;SDS011;6972;51.518;6.918;2022-12-18T11:21:00;26.60;;;12.47;;
13801;SDS011;6972;51.518;6.918;2022-12-18T11:23:33;24.80;;;12.00;;
13801;SDS011;6972;51.518;6.918;2022-12-18T11:26:01;28.57;;;13.27;;
13801;SDS011;6972;51.518;6.918;2022-12-18T11:31:26;29.73;;;12.93;;
13801;SDS011;6972;51.518;6.918;2022-12-18T11:36:44;37.50;;;20.60;;
13801;SDS011;6972;51.518;6.918;2022-12-18T11:41:59;38.53;;;21.27;;
13801;SDS011;6972;51.518;6.918;2022-12-18T11:44:52;38.10;;;20.93;;
13801;SDS011;6972;51.518;6.918;2022-12-18T11:50:21;35.53;;;19.93;;
13801;SDS011;6972;51.518;6.918;2022-12-18T11:52:49;36.30;;;19.10;;
13801;SDS011;6972;51.518;6.918;2022-12-18T11:55:27;32.30;;;18.57;;
13801;SDS011;6972;51.518;6.918;2022-12-18T12:07:01;31.33;;;15.03;;
13801;SDS011;6972;51.518;6.918;2022-12-18T12:10:00;26.20;;;14.30;;
13801;SDS011;6972;51.518;6.918;2022-12-18T12:15:23;28.20;;;14.33;;
13801;SDS011;6972;51.518;6.918;2022-12-18T12:39:35;26.57;;;13.70;;
13801;SDS011;6972;51.518;6.918;2022-12-18T12:42:04;21.53;;;13.47;;
13801;SDS011;6972;51.518;6.918;2022-12-18T12:44:55;22.50;;;14.00;;
13801;SDS011;6972;51.518;6.918;2022-12-18T12:47:25;23.70;;;14.70;;
13801;SDS011;6972;51.518;6.918;2022-12-18T12:49:55;25.13;;;14.50;;
13801;SDS011;6972;51.518;6.918;2022-12-18T12:52:34;28.67;;;15.07;;
13801;SDS011;6972;51.518;6.918;2022-12-18T12:55:04;29.07;;;15.80;;
13801;SDS011;6972;51.518;6.918;2022-12-18T12:57:37;26.43;;;15.30;;
13801;SDS011;6972;51.518;6.918;2022-12-18T13:00:23;27.30;;;15.10;;
13801;SDS011;6972;51.518;6.918;2022-12-18T13:11:29;28.70;;;16.93;;
13801;SDS011;6972;51.518;6.918;2022-12-18T13:14:22;29.50;;;15.30;;
13801;SDS011;6972;51.518;6.918;2022-12-18T13:16:51;22.27;;;14.87;;
13801;SDS011;6972;51.518;6.918;2022-12-18T13:19:23;24.73;;;14.00;;
13801;SDS011;6972;51.518;6.918;2022-12-18T13:21:54;21.87;;;12.20;;
13801;SDS011;6972;51.518;6.918;2022-12-18T13:24:25;21.17;;;11.70;;
13801;SDS011;6972;51.518;6.918;2022-12-18T13:26:55;19.17;;;10.07;;
13801;SDS011;6972;51.518;6.918;2022-12-18T13:32:22;19.03;;;9.30;;
13801;SDS011;6972;51.518;6.918;2022-12-18T13:37:45;15.73;;;9.50;;
13801;SDS011;6972;51.518;6.918;2022-12-18T13:45:44;17.13;;;9.60;;
13801;SDS011;6972;51.518;6.918;2022-12-18T13:48:36;14.33;;;7.83;;
13801;SDS011;6972;51.518;6.918;2022-12-18T13:51:04;11.80;;;7.83;;
13801;SDS011;6972;51.518;6.918;2022-12-18T13:53:34;12.07;;;7.70;;
13801;SDS011;6972;51.518;6.918;2022-12-18T13:56:02;13.90;;;8.17;;
13801;SDS011;6972;51.518;6.918;2022-12-18T13:58:28;12.07;;;7.87;;
13801;SDS011;6972;51.518;6.918;2022-12-18T14:00:54;15.70;;;8.87;;
13801;SDS011;6972;51.518;6.918;2022-12-18T14:03:21;17.63;;;8.97;;
13801;SDS011;6972;51.518;6.918;2022-12-18T14:05:52;15.57;;;9.33;;
13801;SDS011;6972;51.518;6.918;2022-12-18T14:08:24;20.07;;;10.40;;
13801;SDS011;6972;51.518;6.918;2022-12-18T14:10:55;19.80;;;10.30;;
13801;SDS011;6972;51.518;6.918;2022-12-18T14:13:28;25.57;;;10.07;;
13801;SDS011;6972;51.518;6.918;2022-12-18T14:15:57;16.23;;;9.57;;
13801;SDS011;6972;51.518;6.918;2022-12-18T14:21:42;16.07;;;8.70;;
13801;SDS011;6972;51.518;6.918;2022-12-18T14:24:03;14.57;;;8.53;;
13801;SDS011;6972;51.518;6.918;2022-12-18T14:26:30;15.80;;;8.23;;
13801;SDS011;6972;51.518;6.918;2022-12-18T14:29:00;20.10;;;8.13;;
13801;SDS011;6972;51.518;6.918;2022-12-18T14:31:42;15.87;;;8.07;;
13801;SDS011;6972;51.518;6.918;2022-12-18T14:34:14;16.23;;;7.80;;
13801;SDS011;6972;51.518;6.918;2022-12-18T14:36:40;12.73;;;7.60;;
13801;SDS011;6972;51.518;6.918;2022-12-18T14:39:14;17.97;;;7.63;;
13801;SDS011;6972;51.518;6.918;2022-12-18T14:41:42;13.63;;;7.73;;
13801;SDS011;6972;51.518;6.918;2022-12-18T14:44:10;13.37;;;7.83;;
13801;SDS011;6972;51.518;6.918;2022-12-18T14:46:39;11.90;;;6.97;;
13801;SDS011;6972;51.518;6.918;2022-12-18T14:52:06;11.93;;;6.90;;
13801;SDS011;6972;51.518;6.918;2022-12-18T14:54:54;15.40;;;7.60;;
13801;SDS011;6972;51.518;6.918;2022-12-18T14:57:24;14.67;;;7.90;;
13801;SDS011;6972;51.518;6.918;2022-12-18T14:59:55;13.83;;;8.00;;
13801;SDS011;6972;51.518;6.918;2022-12-18T15:02:30;16.17;;;8.03;;
13801;SDS011;6972;51.518;6.918;2022-12-18T15:05:04;14.93;;;8.03;;
13801;SDS011;6972;51.518;6.918;2022-12-18T15:07:40;19.93;;;7.80;;
13801;SDS011;6972;51.518;6.918;2022-12-18T15:23:16;15.40;;;8.50;;
13801;SDS011;6972;51.518;6.918;2022-12-18T15:26:00;16.30;;;8.47;;
13801;SDS011;6972;51.518;6.918;2022-12-18T15:28:39;16.20;;;8.83;;
13801;SDS011;6972;51.518;6.918;2022-12-18T15:33:35;16.13;;;9.03;;
13801;SDS011;6972;51.518;6.918;2022-12-18T15:36:04;16.60;;;8.57;;
13801;SDS011;6972;51.518;6.918;2022-12-18T15:38:33;14.77;;;8.40;;
13801;SDS011;6972;51.518;6.918;2022-12-18T15:40:59;15.70;;;8.40;;
13801;SDS011;6972;51.518;6.918;2022-12-18T15:43:25;17.27;;;9.40;;
13801;SDS011;6972;51.518;6.918;2022-12-18T15:46:12;20.13;;;10.17;;
13801;SDS011;6972;51.518;6.918;2022-12-18T15:48:43;14.57;;;8.33;;
13801;SDS011;6972;51.518;6.918;2022-12-18T15:51:11;17.77;;;9.63;;
13801;SDS011;6972;51.518;6.918;2022-12-18T15:53:39;18.90;;;10.27;;
13801;SDS011;6972;51.518;6.918;2022-12-18T15:56:07;17.80;;;9.50;;
13801;SDS011;6972;51.518;6.918;2022-12-18T15:58:54;17.27;;;8.90;;
13801;SDS011;6972;51.518;6.918;2022-12-18T16:01:20;15.20;;;8.50;;
13801;SDS011;6972;51.518;6.918;2022-12-18T16:03:47;16.30;;;9.50;;
13801;SDS011;6972;51.518;6.918;2022-12-18T16:06:13;21.70;;;10.20;;
13801;SDS011;6972;51.518;6.918;2022-12-18T16:08:38;16.10;;;9.00;;
13801;SDS011;6972;51.518;6.918;2022-12-18T16:11:04;18.07;;;9.00;;
13801;SDS011;6972;51.518;6.918;2022-12-18T16:13:30;13.60;;;8.73;;
13801;SDS011;6972;51.518;6.918;2022-12-18T16:15:56;17.73;;;9.13;;
13801;SDS011;6972;51.518;6.918;2022-12-18T16:18:22;20.27;;;10.17;;
13801;SDS011;6972;51.518;6.918;2022-12-18T16:23:23;19.80;;;10.30;;
13801;SDS011;6972;51.518;6.918;2022-12-18T16:25:52;18.53;;;10.20;;
13801;SDS011;6972;51.518;6.918;2022-12-18T16:28:17;19.87;;;9.80;;
13801;SDS011;6972;51.518;6.918;2022-12-18T16:33:14;19.97;;;10.80;;
13801;SDS011;6972;51.518;6.918;2022-12-18T16:35:40;17.47;;;9.80;;
13801;SDS011;6972;51.518;6.918;2022-12-18T16:38:06;17.23;;;10.30;;
13801;SDS011;6972;51.518;6.918;2022-12-18T16:40:32;19.10;;;10.40;;
13801;SDS011;6972;51.518;6.918;2022-12-18T16:42:58;16.57;;;10.50;;
13801;SDS011;6972;51.518;6.918;2022-12-18T16:45:24;20.53;;;10.83;;
13801;SDS011;6972;51.518;6.918;2022-12-18T16:47:57;19.43;;;10.77;;
13801;SDS011;6972;51.518;6.918;2022-12-18T16:50:23;20.47;;;10.77;;
13801;SDS011;6972;51.518;6.918;2022-12-18T16:52:49;21.50;;;12.27;;
13801;SDS011;6972;51.518;6.918;2022-12-18T16:55:14;21.50;;;11.83;;
13801;SDS011;6972;51.518;6.918;2022-12-18T16:57:40;21.00;;;11.37;;
13801;SDS011;6972;51.518;6.918;2022-12-18T17:00:06;21.17;;;12.18;;
13801;SDS011;6972;51.518;6.918;2022-12-18T17:02:32;21.03;;;12.30;;
13801;SDS011;6972;51.518;6.918;2022-12-18T17:04:58;21.53;;;12.03;;
13801;SDS011;6972;51.518;6.918;2022-12-18T17:07:24;20.33;;;11.13;;
13801;SDS011;6972;51.518;6.918;2022-12-18T17:09:51;21.43;;;11.17;;
13801;SDS011;6972;51.518;6.918;2022-12-18T17:12:18;21.47;;;11.60;;
13801;SDS011;6972;51.518;6.918;2022-12-18T17:14:44;24.60;;;11.90;;
13801;SDS011;6972;51.518;6.918;2022-12-18T17:17:09;21.03;;;11.37;;